sensor_id;sensor_type;location;lat;lon;timestamp;P1;durP1;ratioP1;P2;durP2;ratioP2
6614;SDS011;3343;42.896;23.912;2023-02-28T00:01:40;15.10;;;8.40;;
6614;SDS011;3343;42.896;23.912;2023-02-28T00:04:08;16.03;;;8.20;;
6614;SDS011;3343;42.896;23.912;2023-02-28T00:06:35;21.63;;;10.47;;
6614;SDS011;3343;42.896;23.912;2023-02-28T00:09:02;16.07;;;9.57;;
6614;SDS011;3343;42.896;23.912;2023-02-28T00:11:29;21.37;;;10.63;;
6614;SDS011;3343;42.896;23.912;2023-02-28T00:13:56;17.33;;;9.80;;
6614;SDS011;3343;42.896;23.912;2023-02-28T00:16:23;17.20;;;9.23;;
6614;SDS011;3343;42.896;23.912;2023-02-28T00:18:50;18.87;;;9.30;;
6614;SDS011;3343;42.896;23.912;2023-02-28T00:21:19;24.43;;;10.47;;
6614;SDS011;3343;42.896;23.912;2023-02-28T00:23:46;18.63;;;10.33;;
6614;SDS011;3343;42.896;23.912;2023-02-28T00:26:13;22.80;;;10.77;;
6614;SDS011;3343;42.896;23.912;2023-02-28T00:28:40;17.30;;;8.27;;
6614;SDS011;3343;42.896;23.912;2023-02-28T00:31:07;20.90;;;11.57;;
6614;SDS011;3343;42.896;23.912;2023-02-28T00:33:33;17.07;;;8.87;;
6614;SDS011;3343;42.896;23.912;2023-02-28T00:36:01;23.00;;;9.30;;
6614;SDS011;3343;42.896;23.912;2023-02-28T00:38:33;19.47;;;10.23;;
6614;SDS011;3343;42.896;23.912;2023-02-28T00:41:00;17.00;;;9.07;;
6614;SDS011;3343;42.896;23.912;2023-02-28T00:43:30;16.57;;;7.90;;
6614;SDS011;3343;42.896;23.912;2023-02-28T00:45:58;13.67;;;7.00;;
6614;SDS011;3343;42.896;23.912;2023-02-28T00:48:25;12.83;;;7.90;;
6614;SDS011;3343;42.896;23.912;2023-02-28T00:50:52;14.93;;;7.87;;
6614;SDS011;3343;42.896;23.912;2023-02-28T00:53:20;16.03;;;8.17;;
6614;SDS011;3343;42.896;23.912;2023-02-28T00:55:48;16.27;;;8.63;;
6614;SDS011;3343;42.896;23.912;2023-02-28T00:58:15;13.93;;;7.77;;
6614;SDS011;3343;42.896;23.912;2023-02-28T01:00:42;14.03;;;7.80;;
6614;SDS011;3343;42.896;23.912;2023-02-28T01:03:13;17.70;;;9.07;;
6614;SDS011;3343;42.896;23.912;2023-02-28T01:05:41;14.27;;;7.13;;
6614;SDS011;3343;42.896;23.912;2023-02-28T01:08:08;14.80;;;8.10;;
6614;SDS011;3343;42.896;23.912;2023-02-28T01:10:35;11.90;;;6.93;;
6614;SDS011;3343;42.896;23.912;2023-02-28T01:13:05;15.97;;;7.77;;
6614;SDS011;3343;42.896;23.912;2023-02-28T01:15:32;16.90;;;7.67;;
6614;SDS011;3343;42.896;23.912;2023-02-28T01:17:59;14.30;;;7.77;;
6614;SDS011;3343;42.896;23.912;2023-02-28T01:20:26;18.67;;;8.63;;
6614;SDS011;3343;42.896;23.912;2023-02-28T01:22:53;12.60;;;7.17;;
6614;SDS011;3343;42.896;23.912;2023-02-28T01:25:19;13.33;;;7.43;;
6614;SDS011;3343;42.896;23.912;2023-02-28T01:27:46;14.73;;;6.50;;
6614;SDS011;3343;42.896;23.912;2023-02-28T01:30:15;11.80;;;6.30;;
6614;SDS011;3343;42.896;23.912;2023-02-28T01:32:42;10.03;;;4.87;;
6614;SDS011;3343;42.896;23.912;2023-02-28T01:35:09;8.53;;;5.17;;
6614;SDS011;3343;42.896;23.912;2023-02-28T01:37:36;7.47;;;3.87;;
6614;SDS011;3343;42.896;23.912;2023-02-28T01:40:04;9.17;;;4.90;;
6614;SDS011;3343;42.896;23.912;2023-02-28T01:42:31;10.40;;;5.53;;
6614;SDS011;3343;42.896;23.912;2023-02-28T01:45:00;7.70;;;4.63;;
6614;SDS011;3343;42.896;23.912;2023-02-28T01:47:32;7.50;;;4.70;;
6614;SDS011;3343;42.896;23.912;2023-02-28T01:50:06;9.03;;;4.47;;
6614;SDS011;3343;42.896;23.912;2023-02-28T01:52:38;8.57;;;5.00;;
6614;SDS011;3343;42.896;23.912;2023-02-28T01:55:05;9.67;;;5.53;;
6614;SDS011;3343;42.896;23.912;2023-02-28T01:57:35;9.63;;;4.67;;
6614;SDS011;3343;42.896;23.912;2023-02-28T02:00:08;10.87;;;5.57;;
6614;SDS011;3343;42.896;23.912;2023-02-28T02:02:39;8.93;;;5.27;;
6614;SDS011;3343;42.896;23.912;2023-02-28T02:05:09;8.13;;;4.77;;
6614;SDS011;3343;42.896;23.912;2023-02-28T02:07:38;13.00;;;5.60;;
6614;SDS011;3343;42.896;23.912;2023-02-28T02:10:11;11.63;;;6.13;;
6614;SDS011;3343;42.896;23.912;2023-02-28T02:12:56;7.47;;;4.47;;
6614;SDS011;3343;42.896;23.912;2023-02-28T02:15:35;9.10;;;5.23;;
6614;SDS011;3343;42.896;23.912;2023-02-28T02:18:11;7.87;;;5.17;;
6614;SDS011;3343;42.896;23.912;2023-02-28T02:36:21;13.70;;;6.07;;
6614;SDS011;3343;42.896;23.912;2023-02-28T02:38:53;10.53;;;6.00;;
6614;SDS011;3343;42.896;23.912;2023-02-28T02:41:31;12.33;;;5.97;;
6614;SDS011;3343;42.896;23.912;2023-02-28T02:44:04;9.40;;;5.67;;
6614;SDS011;3343;42.896;23.912;2023-02-28T02:46:37;10.57;;;5.73;;
6614;SDS011;3343;42.896;23.912;2023-02-28T02:49:08;11.73;;;6.53;;
6614;SDS011;3343;42.896;23.912;2023-02-28T02:51:40;11.57;;;6.00;;
6614;SDS011;3343;42.896;23.912;2023-02-28T02:54:10;15.87;;;6.80;;
6614;SDS011;3343;42.896;23.912;2023-02-28T02:56:42;12.40;;;7.23;;
6614;SDS011;3343;42.896;23.912;2023-02-28T02:59:12;15.37;;;7.27;;
6614;SDS011;3343;42.896;23.912;2023-02-28T03:01:46;11.23;;;6.00;;
6614;SDS011;3343;42.896;23.912;2023-02-28T03:04:17;15.33;;;6.77;;
6614;SDS011;3343;42.896;23.912;2023-02-28T03:06:47;13.07;;;6.43;;
6614;SDS011;3343;42.896;23.912;2023-02-28T03:09:14;12.23;;;5.97;;
6614;SDS011;3343;42.896;23.912;2023-02-28T03:11:41;14.03;;;6.17;;
6614;SDS011;3343;42.896;23.912;2023-02-28T03:14:16;11.47;;;5.87;;
6614;SDS011;3343;42.896;23.912;2023-02-28T03:19:59;12.73;;;5.80;;
6614;SDS011;3343;42.896;23.912;2023-02-28T03:22:42;12.33;;;6.13;;
6614;SDS011;3343;42.896;23.912;2023-02-28T03:25:18;15.47;;;6.23;;
6614;SDS011;3343;42.896;23.912;2023-02-28T03:27:53;13.27;;;6.10;;
6614;SDS011;3343;42.896;23.912;2023-02-28T03:30:27;15.53;;;7.83;;
6614;SDS011;3343;42.896;23.912;2023-02-28T03:33:01;15.73;;;6.70;;
6614;SDS011;3343;42.896;23.912;2023-02-28T03:35:34;19.60;;;8.47;;
6614;SDS011;3343;42.896;23.912;2023-02-28T03:38:07;13.47;;;6.70;;
6614;SDS011;3343;42.896;23.912;2023-02-28T03:40:39;13.43;;;6.70;;
6614;SDS011;3343;42.896;23.912;2023-02-28T03:43:12;13.37;;;6.57;;
6614;SDS011;3343;42.896;23.912;2023-02-28T03:45:44;11.60;;;6.47;;
6614;SDS011;3343;42.896;23.912;2023-02-28T03:48:16;15.70;;;6.40;;
6614;SDS011;3343;42.896;23.912;2023-02-28T03:50:48;15.37;;;6.60;;
6614;SDS011;3343;42.896;23.912;2023-02-28T03:53:22;17.77;;;6.77;;
6614;SDS011;3343;42.896;23.912;2023-02-28T03:55:53;13.30;;;6.40;;
6614;SDS011;3343;42.896;23.912;2023-02-28T03:58:24;14.83;;;7.20;;
6614;SDS011;3343;42.896;23.912;2023-02-28T04:00:57;13.20;;;6.10;;
6614;SDS011;3343;42.896;23.912;2023-02-28T04:03:33;15.50;;;6.87;;
6614;SDS011;3343;42.896;23.912;2023-02-28T04:06:01;14.97;;;6.63;;
6614;SDS011;3343;42.896;23.912;2023-02-28T04:08:31;15.13;;;7.27;;
6614;SDS011;3343;42.896;23.912;2023-02-28T04:11:00;17.60;;;7.37;;
6614;SDS011;3343;42.896;23.912;2023-02-28T04:13:29;38.63;;;15.97;;
6614;SDS011;3343;42.896;23.912;2023-02-28T04:15:56;26.80;;;14.57;;
6614;SDS011;3343;42.896;23.912;2023-02-28T04:18:23;16.73;;;8.60;;
6614;SDS011;3343;42.896;23.912;2023-02-28T04:20:50;17.60;;;8.57;;
6614;SDS011;3343;42.896;23.912;2023-02-28T04:23:17;15.70;;;7.10;;
6614;SDS011;3343;42.896;23.912;2023-02-28T04:25:45;16.70;;;7.43;;
6614;SDS011;3343;42.896;23.912;2023-02-28T04:28:12;16.07;;;8.70;;
6614;SDS011;3343;42.896;23.912;2023-02-28T04:30:39;15.07;;;8.20;;
6614;SDS011;3343;42.896;23.912;2023-02-28T04:33:06;14.53;;;8.13;;
6614;SDS011;3343;42.896;23.912;2023-02-28T04:35:32;13.53;;;7.80;;
6614;SDS011;3343;42.896;23.912;2023-02-28T04:37:59;14.83;;;7.80;;
6614;SDS011;3343;42.896;23.912;2023-02-28T04:40:26;17.20;;;7.70;;
6614;SDS011;3343;42.896;23.912;2023-02-28T04:42:54;16.90;;;8.20;;
6614;SDS011;3343;42.896;23.912;2023-02-28T04:45:21;15.97;;;6.60;;
6614;SDS011;3343;42.896;23.912;2023-02-28T04:47:48;15.97;;;7.80;;
6614;SDS011;3343;42.896;23.912;2023-02-28T04:50:15;16.53;;;6.87;;
6614;SDS011;3343;42.896;23.912;2023-02-28T04:52:42;11.73;;;6.33;;
6614;SDS011;3343;42.896;23.912;2023-02-28T04:55:09;13.33;;;7.07;;
6614;SDS011;3343;42.896;23.912;2023-02-28T04:57:36;15.03;;;6.80;;
6614;SDS011;3343;42.896;23.912;2023-02-28T05:00:05;18.73;;;8.07;;
6614;SDS011;3343;42.896;23.912;2023-02-28T05:02:36;18.23;;;8.20;;
6614;SDS011;3343;42.896;23.912;2023-02-28T05:05:03;17.23;;;8.33;;
6614;SDS011;3343;42.896;23.912;2023-02-28T05:07:30;13.90;;;8.33;;
6614;SDS011;3343;42.896;23.912;2023-02-28T05:09:57;20.57;;;9.97;;
6614;SDS011;3343;42.896;23.912;2023-02-28T05:12:24;15.67;;;7.63;;
6614;SDS011;3343;42.896;23.912;2023-02-28T05:14:51;19.57;;;8.90;;
6614;SDS011;3343;42.896;23.912;2023-02-28T05:17:19;15.40;;;7.23;;
6614;SDS011;3343;42.896;23.912;2023-02-28T05:19:46;15.23;;;7.70;;
6614;SDS011;3343;42.896;23.912;2023-02-28T05:22:13;18.33;;;7.00;;
6614;SDS011;3343;42.896;23.912;2023-02-28T05:24:42;15.73;;;7.00;;
6614;SDS011;3343;42.896;23.912;2023-02-28T05:27:09;18.03;;;7.83;;
6614;SDS011;3343;42.896;23.912;2023-02-28T05:29:36;15.83;;;7.10;;
6614;SDS011;3343;42.896;23.912;2023-02-28T05:32:08;15.47;;;7.77;;
6614;SDS011;3343;42.896;23.912;2023-02-28T05:34:38;15.70;;;7.90;;
6614;SDS011;3343;42.896;23.912;2023-02-28T05:37:05;22.80;;;9.90;;
6614;SDS011;3343;42.896;23.912;2023-02-28T05:39:33;13.97;;;6.93;;
6614;SDS011;3343;42.896;23.912;2023-02-28T05:42:00;17.90;;;6.70;;
6614;SDS011;3343;42.896;23.912;2023-02-28T05:44:26;15.80;;;7.20;;
6614;SDS011;3343;42.896;23.912;2023-02-28T05:46:53;13.47;;;7.27;;
6614;SDS011;3343;42.896;23.912;2023-02-28T05:49:20;20.50;;;7.57;;
6614;SDS011;3343;42.896;23.912;2023-02-28T05:51:48;14.80;;;6.63;;
6614;SDS011;3343;42.896;23.912;2023-02-28T05:54:15;29.07;;;13.47;;
6614;SDS011;3343;42.896;23.912;2023-02-28T05:56:42;20.63;;;10.27;;
6614;SDS011;3343;42.896;23.912;2023-02-28T05:59:11;15.43;;;6.97;;
6614;SDS011;3343;42.896;23.912;2023-02-28T06:01:40;11.47;;;6.43;;
6614;SDS011;3343;42.896;23.912;2023-02-28T06:04:13;13.37;;;6.00;;
6614;SDS011;3343;42.896;23.912;2023-02-28T06:06:43;16.40;;;7.30;;
6614;SDS011;3343;42.896;23.912;2023-02-28T06:09:11;20.77;;;7.60;;
6614;SDS011;3343;42.896;23.912;2023-02-28T06:11:38;16.83;;;7.33;;
6614;SDS011;3343;42.896;23.912;2023-02-28T06:14:05;16.53;;;6.60;;
6614;SDS011;3343;42.896;23.912;2023-02-28T06:16:33;17.33;;;7.57;;
6614;SDS011;3343;42.896;23.912;2023-02-28T06:19:01;11.60;;;5.57;;
6614;SDS011;3343;42.896;23.912;2023-02-28T06:21:29;18.63;;;7.40;;
6614;SDS011;3343;42.896;23.912;2023-02-28T06:23:57;16.27;;;7.40;;
6614;SDS011;3343;42.896;23.912;2023-02-28T06:26:26;17.03;;;7.00;;
6614;SDS011;3343;42.896;23.912;2023-02-28T06:28:53;14.13;;;7.30;;
6614;SDS011;3343;42.896;23.912;2023-02-28T06:31:20;15.90;;;7.60;;
6614;SDS011;3343;42.896;23.912;2023-02-28T06:33:47;14.23;;;6.93;;
6614;SDS011;3343;42.896;23.912;2023-02-28T06:36:15;14.30;;;6.60;;
6614;SDS011;3343;42.896;23.912;2023-02-28T06:38:42;12.47;;;6.30;;
6614;SDS011;3343;42.896;23.912;2023-02-28T06:41:09;15.77;;;7.10;;
6614;SDS011;3343;42.896;23.912;2023-02-28T06:43:39;12.37;;;6.57;;
6614;SDS011;3343;42.896;23.912;2023-02-28T06:46:08;13.30;;;7.13;;
6614;SDS011;3343;42.896;23.912;2023-02-28T06:48:37;11.73;;;6.57;;
6614;SDS011;3343;42.896;23.912;2023-02-28T06:51:05;17.73;;;7.37;;
6614;SDS011;3343;42.896;23.912;2023-02-28T06:53:33;14.60;;;7.73;;
6614;SDS011;3343;42.896;23.912;2023-02-28T06:56:06;9.97;;;5.83;;
6614;SDS011;3343;42.896;23.912;2023-02-28T06:58:34;9.53;;;5.60;;
6614;SDS011;3343;42.896;23.912;2023-02-28T07:01:04;10.93;;;6.17;;
6614;SDS011;3343;42.896;23.912;2023-02-28T07:03:31;11.40;;;5.80;;
6614;SDS011;3343;42.896;23.912;2023-02-28T07:05:58;12.77;;;5.53;;
6614;SDS011;3343;42.896;23.912;2023-02-28T07:08:25;11.80;;;5.37;;
6614;SDS011;3343;42.896;23.912;2023-02-28T07:10:53;12.00;;;5.93;;
6614;SDS011;3343;42.896;23.912;2023-02-28T07:13:20;13.50;;;5.40;;
6614;SDS011;3343;42.896;23.912;2023-02-28T07:15:52;12.83;;;5.87;;
6614;SDS011;3343;42.896;23.912;2023-02-28T07:18:21;13.70;;;6.00;;
6614;SDS011;3343;42.896;23.912;2023-02-28T07:20:48;11.00;;;6.53;;
6614;SDS011;3343;42.896;23.912;2023-02-28T07:23:15;15.40;;;6.87;;
6614;SDS011;3343;42.896;23.912;2023-02-28T07:25:43;11.57;;;5.60;;
6614;SDS011;3343;42.896;23.912;2023-02-28T07:28:11;16.00;;;6.47;;
6614;SDS011;3343;42.896;23.912;2023-02-28T07:30:38;10.00;;;4.77;;
6614;SDS011;3343;42.896;23.912;2023-02-28T07:33:05;11.13;;;6.20;;
6614;SDS011;3343;42.896;23.912;2023-02-28T07:35:33;17.23;;;5.83;;
6614;SDS011;3343;42.896;23.912;2023-02-28T07:38:00;9.13;;;4.90;;
6614;SDS011;3343;42.896;23.912;2023-02-28T07:40:28;12.13;;;5.80;;
6614;SDS011;3343;42.896;23.912;2023-02-28T07:42:54;9.80;;;5.97;;
6614;SDS011;3343;42.896;23.912;2023-02-28T07:45:21;9.00;;;4.77;;
6614;SDS011;3343;42.896;23.912;2023-02-28T07:47:48;10.10;;;4.77;;
6614;SDS011;3343;42.896;23.912;2023-02-28T07:50:15;9.87;;;4.70;;
6614;SDS011;3343;42.896;23.912;2023-02-28T07:52:44;10.27;;;5.00;;
6614;SDS011;3343;42.896;23.912;2023-02-28T07:55:10;8.63;;;4.63;;
6614;SDS011;3343;42.896;23.912;2023-02-28T07:57:38;9.30;;;4.93;;
6614;SDS011;3343;42.896;23.912;2023-02-28T08:00:07;9.17;;;4.53;;
6614;SDS011;3343;42.896;23.912;2023-02-28T08:02:36;12.30;;;5.47;;
6614;SDS011;3343;42.896;23.912;2023-02-28T08:05:03;8.00;;;4.13;;
6614;SDS011;3343;42.896;23.912;2023-02-28T08:07:30;10.90;;;5.17;;
6614;SDS011;3343;42.896;23.912;2023-02-28T08:09:58;8.70;;;5.30;;
6614;SDS011;3343;42.896;23.912;2023-02-28T08:12:26;20.03;;;7.13;;
6614;SDS011;3343;42.896;23.912;2023-02-28T08:14:53;11.70;;;4.90;;
6614;SDS011;3343;42.896;23.912;2023-02-28T08:17:20;10.43;;;6.17;;
6614;SDS011;3343;42.896;23.912;2023-02-28T08:19:47;13.50;;;6.00;;
6614;SDS011;3343;42.896;23.912;2023-02-28T08:22:13;9.77;;;4.77;;
6614;SDS011;3343;42.896;23.912;2023-02-28T08:24:40;8.13;;;4.83;;
6614;SDS011;3343;42.896;23.912;2023-02-28T08:27:10;9.40;;;4.30;;
6614;SDS011;3343;42.896;23.912;2023-02-28T08:29:36;7.63;;;4.30;;
6614;SDS011;3343;42.896;23.912;2023-02-28T08:32:04;8.73;;;4.13;;
6614;SDS011;3343;42.896;23.912;2023-02-28T08:34:31;9.70;;;4.97;;
6614;SDS011;3343;42.896;23.912;2023-02-28T08:36:58;9.73;;;5.00;;
6614;SDS011;3343;42.896;23.912;2023-02-28T08:39:24;10.47;;;5.17;;
6614;SDS011;3343;42.896;23.912;2023-02-28T08:41:51;6.80;;;4.87;;
6614;SDS011;3343;42.896;23.912;2023-02-28T08:44:19;7.87;;;4.13;;
6614;SDS011;3343;42.896;23.912;2023-02-28T08:46:47;10.13;;;5.10;;
6614;SDS011;3343;42.896;23.912;2023-02-28T08:49:13;9.70;;;4.33;;
6614;SDS011;3343;42.896;23.912;2023-02-28T08:51:40;11.70;;;5.13;;
6614;SDS011;3343;42.896;23.912;2023-02-28T08:54:07;7.60;;;4.33;;
6614;SDS011;3343;42.896;23.912;2023-02-28T08:56:37;9.37;;;3.93;;
6614;SDS011;3343;42.896;23.912;2023-02-28T08:59:04;8.03;;;3.80;;
6614;SDS011;3343;42.896;23.912;2023-02-28T09:01:33;9.43;;;4.57;;
6614;SDS011;3343;42.896;23.912;2023-02-28T09:04:01;11.33;;;4.77;;
6614;SDS011;3343;42.896;23.912;2023-02-28T09:06:28;13.80;;;4.57;;
6614;SDS011;3343;42.896;23.912;2023-02-28T09:08:56;10.43;;;4.67;;
6614;SDS011;3343;42.896;23.912;2023-02-28T09:11:24;11.07;;;4.63;;
6614;SDS011;3343;42.896;23.912;2023-02-28T09:13:51;9.83;;;5.27;;
6614;SDS011;3343;42.896;23.912;2023-02-28T09:16:19;15.93;;;7.57;;
6614;SDS011;3343;42.896;23.912;2023-02-28T09:18:47;8.60;;;4.63;;
6614;SDS011;3343;42.896;23.912;2023-02-28T09:21:15;12.20;;;5.13;;
6614;SDS011;3343;42.896;23.912;2023-02-28T09:23:44;9.83;;;5.27;;
6614;SDS011;3343;42.896;23.912;2023-02-28T09:26:13;9.33;;;4.60;;
6614;SDS011;3343;42.896;23.912;2023-02-28T09:28:42;7.87;;;4.87;;
6614;SDS011;3343;42.896;23.912;2023-02-28T09:31:11;8.60;;;4.80;;
6614;SDS011;3343;42.896;23.912;2023-02-28T09:33:39;12.70;;;7.07;;
6614;SDS011;3343;42.896;23.912;2023-02-28T09:36:08;14.53;;;6.13;;
6614;SDS011;3343;42.896;23.912;2023-02-28T09:38:34;17.57;;;7.57;;
6614;SDS011;3343;42.896;23.912;2023-02-28T09:41:02;11.50;;;5.10;;
6614;SDS011;3343;42.896;23.912;2023-02-28T09:43:36;8.27;;;4.00;;
6614;SDS011;3343;42.896;23.912;2023-02-28T09:46:05;14.27;;;5.77;;
6614;SDS011;3343;42.896;23.912;2023-02-28T09:48:39;12.37;;;5.27;;
6614;SDS011;3343;42.896;23.912;2023-02-28T09:51:14;8.23;;;5.03;;
6614;SDS011;3343;42.896;23.912;2023-02-28T09:53:52;11.80;;;4.87;;
6614;SDS011;3343;42.896;23.912;2023-02-28T09:56:20;10.80;;;6.17;;
6614;SDS011;3343;42.896;23.912;2023-02-28T09:58:53;12.30;;;5.67;;
6614;SDS011;3343;42.896;23.912;2023-02-28T10:01:24;8.87;;;5.07;;
6614;SDS011;3343;42.896;23.912;2023-02-28T10:03:58;12.40;;;5.80;;
6614;SDS011;3343;42.896;23.912;2023-02-28T10:06:32;6.67;;;3.87;;
6614;SDS011;3343;42.896;23.912;2023-02-28T10:09:07;10.93;;;5.20;;
6614;SDS011;3343;42.896;23.912;2023-02-28T10:11:39;15.50;;;7.67;;
6614;SDS011;3343;42.896;23.912;2023-02-28T10:14:10;13.10;;;6.80;;
6614;SDS011;3343;42.896;23.912;2023-02-28T10:16:41;7.17;;;4.57;;
6614;SDS011;3343;42.896;23.912;2023-02-28T10:19:19;10.73;;;6.00;;
6614;SDS011;3343;42.896;23.912;2023-02-28T10:21:52;11.83;;;4.90;;
6614;SDS011;3343;42.896;23.912;2023-02-28T10:24:25;10.57;;;4.23;;
6614;SDS011;3343;42.896;23.912;2023-02-28T10:26:56;12.40;;;4.50;;
6614;SDS011;3343;42.896;23.912;2023-02-28T10:29:26;12.90;;;5.23;;
6614;SDS011;3343;42.896;23.912;2023-02-28T10:31:55;11.00;;;5.73;;
6614;SDS011;3343;42.896;23.912;2023-02-28T10:34:22;28.87;;;9.40;;
6614;SDS011;3343;42.896;23.912;2023-02-28T10:36:52;25.77;;;9.87;;
6614;SDS011;3343;42.896;23.912;2023-02-28T10:39:40;33.00;;;13.50;;
6614;SDS011;3343;42.896;23.912;2023-02-28T10:42:21;25.90;;;12.03;;
6614;SDS011;3343;42.896;23.912;2023-02-28T10:45:04;22.10;;;9.23;;
6614;SDS011;3343;42.896;23.912;2023-02-28T10:47:33;19.77;;;9.83;;
6614;SDS011;3343;42.896;23.912;2023-02-28T10:50:02;12.73;;;6.23;;
6614;SDS011;3343;42.896;23.912;2023-02-28T10:52:34;17.97;;;6.97;;
6614;SDS011;3343;42.896;23.912;2023-02-28T10:55:14;11.40;;;5.07;;
6614;SDS011;3343;42.896;23.912;2023-02-28T10:57:47;11.73;;;5.73;;
6614;SDS011;3343;42.896;23.912;2023-02-28T11:00:16;13.50;;;5.87;;
6614;SDS011;3343;42.896;23.912;2023-02-28T11:02:45;8.53;;;3.87;;
6614;SDS011;3343;42.896;23.912;2023-02-28T11:05:25;9.07;;;4.90;;
6614;SDS011;3343;42.896;23.912;2023-02-28T11:07:55;11.03;;;5.20;;
6614;SDS011;3343;42.896;23.912;2023-02-28T11:10:25;8.57;;;3.90;;
6614;SDS011;3343;42.896;23.912;2023-02-28T11:12:55;10.50;;;5.13;;
6614;SDS011;3343;42.896;23.912;2023-02-28T11:15:23;7.67;;;4.53;;
6614;SDS011;3343;42.896;23.912;2023-02-28T11:17:55;10.57;;;4.43;;
6614;SDS011;3343;42.896;23.912;2023-02-28T11:20:26;10.23;;;5.80;;
6614;SDS011;3343;42.896;23.912;2023-02-28T11:22:57;11.30;;;5.67;;
6614;SDS011;3343;42.896;23.912;2023-02-28T11:25:28;8.90;;;4.37;;
6614;SDS011;3343;42.896;23.912;2023-02-28T11:27:58;7.97;;;4.47;;
6614;SDS011;3343;42.896;23.912;2023-02-28T11:30:31;12.77;;;4.87;;
6614;SDS011;3343;42.896;23.912;2023-02-28T11:33:13;8.33;;;4.47;;
6614;SDS011;3343;42.896;23.912;2023-02-28T11:35:47;7.80;;;4.03;;
6614;SDS011;3343;42.896;23.912;2023-02-28T11:38:17;11.47;;;4.07;;
6614;SDS011;3343;42.896;23.912;2023-02-28T11:40:46;10.33;;;4.83;;
6614;SDS011;3343;42.896;23.912;2023-02-28T11:43:22;7.17;;;4.67;;
6614;SDS011;3343;42.896;23.912;2023-02-28T11:46:05;10.77;;;5.40;;
6614;SDS011;3343;42.896;23.912;2023-02-28T11:48:43;8.70;;;4.63;;
6614;SDS011;3343;42.896;23.912;2023-02-28T11:51:21;6.50;;;4.13;;
6614;SDS011;3343;42.896;23.912;2023-02-28T11:54:00;10.60;;;4.67;;
6614;SDS011;3343;42.896;23.912;2023-02-28T11:56:43;7.80;;;4.13;;
6614;SDS011;3343;42.896;23.912;2023-02-28T11:59:22;10.10;;;4.80;;
6614;SDS011;3343;42.896;23.912;2023-02-28T12:02:05;9.57;;;4.30;;
6614;SDS011;3343;42.896;23.912;2023-02-28T12:04:48;7.13;;;3.83;;
6614;SDS011;3343;42.896;23.912;2023-02-28T12:07:25;6.57;;;3.93;;
6614;SDS011;3343;42.896;23.912;2023-02-28T12:10:01;9.37;;;4.27;;
6614;SDS011;3343;42.896;23.912;2023-02-28T12:12:39;11.07;;;5.33;;
6614;SDS011;3343;42.896;23.912;2023-02-28T12:15:28;9.23;;;5.17;;
6614;SDS011;3343;42.896;23.912;2023-02-28T12:18:09;8.43;;;4.07;;
6614;SDS011;3343;42.896;23.912;2023-02-28T12:20:49;7.60;;;4.33;;
6614;SDS011;3343;42.896;23.912;2023-02-28T12:23:41;7.33;;;4.10;;
6614;SDS011;3343;42.896;23.912;2023-02-28T12:26:21;7.60;;;4.00;;
6614;SDS011;3343;42.896;23.912;2023-02-28T12:28:59;6.60;;;3.60;;
6614;SDS011;3343;42.896;23.912;2023-02-28T12:31:31;6.17;;;3.30;;
6614;SDS011;3343;42.896;23.912;2023-02-28T12:34:03;6.27;;;3.37;;
6614;SDS011;3343;42.896;23.912;2023-02-28T12:36:34;12.23;;;4.07;;
6614;SDS011;3343;42.896;23.912;2023-02-28T12:39:03;6.37;;;3.90;;
6614;SDS011;3343;42.896;23.912;2023-02-28T12:41:39;7.00;;;3.40;;
6614;SDS011;3343;42.896;23.912;2023-02-28T12:44:09;6.43;;;3.90;;
6614;SDS011;3343;42.896;23.912;2023-02-28T12:46:42;7.20;;;3.63;;
6614;SDS011;3343;42.896;23.912;2023-02-28T12:49:15;7.13;;;4.07;;
6614;SDS011;3343;42.896;23.912;2023-02-28T12:51:44;9.43;;;4.80;;
6614;SDS011;3343;42.896;23.912;2023-02-28T12:54:15;7.53;;;4.00;;
6614;SDS011;3343;42.896;23.912;2023-02-28T12:56:54;6.13;;;3.13;;
6614;SDS011;3343;42.896;23.912;2023-02-28T12:59:30;4.10;;;2.83;;
6614;SDS011;3343;42.896;23.912;2023-02-28T13:05:19;4.27;;;3.20;;
6614;SDS011;3343;42.896;23.912;2023-02-28T13:07:59;4.10;;;3.00;;
6614;SDS011;3343;42.896;23.912;2023-02-28T13:10:40;5.73;;;2.57;;
6614;SDS011;3343;42.896;23.912;2023-02-28T13:13:15;6.50;;;3.23;;
6614;SDS011;3343;42.896;23.912;2023-02-28T13:15:56;7.23;;;3.33;;
6614;SDS011;3343;42.896;23.912;2023-02-28T13:18:27;4.20;;;2.63;;
6614;SDS011;3343;42.896;23.912;2023-02-28T13:20:57;3.47;;;2.47;;
6614;SDS011;3343;42.896;23.912;2023-02-28T13:23:39;8.30;;;3.40;;
6614;SDS011;3343;42.896;23.912;2023-02-28T13:29:29;5.63;;;3.00;;
6614;SDS011;3343;42.896;23.912;2023-02-28T13:44:18;4.73;;;2.33;;
6614;SDS011;3343;42.896;23.912;2023-02-28T13:49:50;5.07;;;2.63;;
6614;SDS011;3343;42.896;23.912;2023-02-28T13:52:20;5.03;;;2.90;;
6614;SDS011;3343;42.896;23.912;2023-02-28T13:54:52;6.30;;;2.87;;
6614;SDS011;3343;42.896;23.912;2023-02-28T13:57:28;3.73;;;2.30;;
6614;SDS011;3343;42.896;23.912;2023-02-28T14:00:09;5.03;;;3.37;;
6614;SDS011;3343;42.896;23.912;2023-02-28T14:02:53;4.47;;;2.63;;
6614;SDS011;3343;42.896;23.912;2023-02-28T14:05:40;5.33;;;2.90;;
6614;SDS011;3343;42.896;23.912;2023-02-28T14:08:11;3.47;;;2.77;;
6614;SDS011;3343;42.896;23.912;2023-02-28T14:10:43;6.20;;;3.27;;
6614;SDS011;3343;42.896;23.912;2023-02-28T14:13:14;4.77;;;3.07;;
6614;SDS011;3343;42.896;23.912;2023-02-28T14:15:56;6.03;;;3.07;;
6614;SDS011;3343;42.896;23.912;2023-02-28T14:18:27;3.20;;;2.43;;
6614;SDS011;3343;42.896;23.912;2023-02-28T14:21:01;5.20;;;3.30;;
6614;SDS011;3343;42.896;23.912;2023-02-28T14:23:42;4.60;;;2.97;;
6614;SDS011;3343;42.896;23.912;2023-02-28T14:26:30;6.70;;;2.83;;
6614;SDS011;3343;42.896;23.912;2023-02-28T14:29:28;4.97;;;2.97;;
6614;SDS011;3343;42.896;23.912;2023-02-28T14:32:05;7.73;;;4.17;;
6614;SDS011;3343;42.896;23.912;2023-02-28T14:34:42;4.30;;;2.70;;
6614;SDS011;3343;42.896;23.912;2023-02-28T14:37:15;5.60;;;2.63;;
6614;SDS011;3343;42.896;23.912;2023-02-28T14:39:46;10.07;;;4.77;;
6614;SDS011;3343;42.896;23.912;2023-02-28T14:42:29;5.60;;;3.50;;
6614;SDS011;3343;42.896;23.912;2023-02-28T14:44:57;6.63;;;3.77;;
6614;SDS011;3343;42.896;23.912;2023-02-28T14:47:25;10.07;;;4.27;;
6614;SDS011;3343;42.896;23.912;2023-02-28T14:49:57;4.23;;;2.77;;
6614;SDS011;3343;42.896;23.912;2023-02-28T14:52:25;5.63;;;3.23;;
6614;SDS011;3343;42.896;23.912;2023-02-28T14:54:55;4.97;;;3.00;;
6614;SDS011;3343;42.896;23.912;2023-02-28T14:57:24;4.47;;;2.83;;
6614;SDS011;3343;42.896;23.912;2023-02-28T14:59:57;7.33;;;3.00;;
6614;SDS011;3343;42.896;23.912;2023-02-28T15:02:25;5.13;;;3.13;;
6614;SDS011;3343;42.896;23.912;2023-02-28T15:04:58;5.57;;;3.53;;
6614;SDS011;3343;42.896;23.912;2023-02-28T15:07:26;4.83;;;3.33;;
6614;SDS011;3343;42.896;23.912;2023-02-28T15:10:15;6.80;;;4.10;;
6614;SDS011;3343;42.896;23.912;2023-02-28T15:12:48;12.03;;;5.00;;
6614;SDS011;3343;42.896;23.912;2023-02-28T15:15:18;6.40;;;3.70;;
6614;SDS011;3343;42.896;23.912;2023-02-28T15:17:49;6.87;;;4.30;;
6614;SDS011;3343;42.896;23.912;2023-02-28T15:20:20;10.47;;;4.57;;
6614;SDS011;3343;42.896;23.912;2023-02-28T15:22:47;10.03;;;6.47;;
6614;SDS011;3343;42.896;23.912;2023-02-28T15:25:18;4.17;;;3.17;;
6614;SDS011;3343;42.896;23.912;2023-02-28T15:27:48;10.83;;;4.67;;
6614;SDS011;3343;42.896;23.912;2023-02-28T15:30:17;5.63;;;3.00;;
6614;SDS011;3343;42.896;23.912;2023-02-28T15:33:01;5.07;;;3.27;;
6614;SDS011;3343;42.896;23.912;2023-02-28T15:35:32;6.00;;;3.97;;
6614;SDS011;3343;42.896;23.912;2023-02-28T15:38:00;4.47;;;2.73;;
6614;SDS011;3343;42.896;23.912;2023-02-28T15:40:32;4.47;;;2.53;;
6614;SDS011;3343;42.896;23.912;2023-02-28T15:43:04;8.33;;;4.30;;
6614;SDS011;3343;42.896;23.912;2023-02-28T15:45:33;8.80;;;3.90;;
6614;SDS011;3343;42.896;23.912;2023-02-28T15:48:10;10.03;;;4.87;;
6614;SDS011;3343;42.896;23.912;2023-02-28T15:50:44;13.27;;;7.50;;
6614;SDS011;3343;42.896;23.912;2023-02-28T15:53:14;5.43;;;3.63;;
6614;SDS011;3343;42.896;23.912;2023-02-28T15:55:43;8.27;;;4.17;;